sensor_id;sensor_type;location;lat;lon;timestamp;P1;durP1;ratioP1;P2;durP2;ratioP2
15693;SDS011;7947;48.834;9.132;2022-12-18T00:00:39;25.90;;;11.63;;
15693;SDS011;7947;48.834;9.132;2022-12-18T00:03:48;21.57;;;10.73;;
15693;SDS011;7947;48.834;9.132;2022-12-18T00:06:55;24.67;;;10.97;;
15693;SDS011;7947;48.834;9.132;2022-12-18T00:10:04;22.93;;;10.03;;
15693;SDS011;7947;48.834;9.132;2022-12-18T00:13:17;24.10;;;10.57;;
15693;SDS011;7947;48.834;9.132;2022-12-18T00:16:25;26.63;;;12.23;;
15693;SDS011;7947;48.834;9.132;2022-12-18T00:19:34;22.40;;;10.00;;
15693;SDS011;7947;48.834;9.132;2022-12-18T00:22:40;23.43;;;10.90;;
15693;SDS011;7947;48.834;9.132;2022-12-18T00:25:48;23.70;;;9.63;;
15693;SDS011;7947;48.834;9.132;2022-12-18T00:28:59;21.37;;;10.83;;
15693;SDS011;7947;48.834;9.132;2022-12-18T00:32:06;28.60;;;11.77;;
15693;SDS011;7947;48.834;9.132;2022-12-18T00:35:15;23.10;;;11.80;;
15693;SDS011;7947;48.834;9.132;2022-12-18T00:38:48;26.50;;;11.33;;
15693;SDS011;7947;48.834;9.132;2022-12-18T00:42:12;28.67;;;11.77;;
15693;SDS011;7947;48.834;9.132;2022-12-18T00:45:38;22.67;;;11.60;;
15693;SDS011;7947;48.834;9.132;2022-12-18T00:49:09;26.63;;;12.23;;
15693;SDS011;7947;48.834;9.132;2022-12-18T00:52:31;26.97;;;13.17;;
15693;SDS011;7947;48.834;9.132;2022-12-18T00:55:55;22.43;;;10.97;;
15693;SDS011;7947;48.834;9.132;2022-12-18T01:03:09;24.47;;;10.73;;
15693;SDS011;7947;48.834;9.132;2022-12-18T01:06:52;27.13;;;10.90;;
15693;SDS011;7947;48.834;9.132;2022-12-18T01:10:27;19.33;;;9.83;;
15693;SDS011;7947;48.834;9.132;2022-12-18T01:14:11;21.43;;;10.17;;
15693;SDS011;7947;48.834;9.132;2022-12-18T01:17:58;23.23;;;9.70;;
15693;SDS011;7947;48.834;9.132;2022-12-18T01:21:46;23.90;;;9.83;;
15693;SDS011;7947;48.834;9.132;2022-12-18T01:25:15;24.03;;;11.33;;
15693;SDS011;7947;48.834;9.132;2022-12-18T01:28:35;23.13;;;11.37;;
15693;SDS011;7947;48.834;9.132;2022-12-18T01:32:07;23.83;;;11.33;;
15693;SDS011;7947;48.834;9.132;2022-12-18T01:35:27;21.53;;;12.20;;
15693;SDS011;7947;48.834;9.132;2022-12-18T01:38:47;22.43;;;10.33;;
15693;SDS011;7947;48.834;9.132;2022-12-18T01:42:05;29.07;;;12.67;;
15693;SDS011;7947;48.834;9.132;2022-12-18T01:45:24;29.53;;;10.57;;
15693;SDS011;7947;48.834;9.132;2022-12-18T01:48:33;23.03;;;10.90;;
15693;SDS011;7947;48.834;9.132;2022-12-18T01:51:51;21.17;;;10.60;;
15693;SDS011;7947;48.834;9.132;2022-12-18T01:55:16;25.23;;;11.73;;
15693;SDS011;7947;48.834;9.132;2022-12-18T01:58:38;25.13;;;11.47;;
15693;SDS011;7947;48.834;9.132;2022-12-18T02:02:03;22.90;;;11.43;;
15693;SDS011;7947;48.834;9.132;2022-12-18T02:05:22;24.47;;;11.43;;
15693;SDS011;7947;48.834;9.132;2022-12-18T02:09:02;31.73;;;12.80;;
15693;SDS011;7947;48.834;9.132;2022-12-18T02:12:21;27.33;;;10.83;;
15693;SDS011;7947;48.834;9.132;2022-12-18T02:15:43;24.83;;;10.70;;
15693;SDS011;7947;48.834;9.132;2022-12-18T02:18:59;30.63;;;12.83;;
15693;SDS011;7947;48.834;9.132;2022-12-18T02:22:23;28.60;;;11.83;;
15693;SDS011;7947;48.834;9.132;2022-12-18T02:25:53;25.67;;;12.23;;
15693;SDS011;7947;48.834;9.132;2022-12-18T02:29:20;26.07;;;12.27;;
15693;SDS011;7947;48.834;9.132;2022-12-18T02:32:35;28.23;;;12.17;;
15693;SDS011;7947;48.834;9.132;2022-12-18T02:35:52;24.60;;;10.87;;
15693;SDS011;7947;48.834;9.132;2022-12-18T02:39:10;23.73;;;11.63;;
15693;SDS011;7947;48.834;9.132;2022-12-18T02:46:29;22.43;;;10.10;;
15693;SDS011;7947;48.834;9.132;2022-12-18T02:49:44;24.93;;;11.03;;
15693;SDS011;7947;48.834;9.132;2022-12-18T02:53:30;30.00;;;12.00;;
15693;SDS011;7947;48.834;9.132;2022-12-18T02:56:53;33.30;;;11.57;;
15693;SDS011;7947;48.834;9.132;2022-12-18T03:00:12;24.23;;;12.17;;
15693;SDS011;7947;48.834;9.132;2022-12-18T03:03:38;35.57;;;12.47;;
15693;SDS011;7947;48.834;9.132;2022-12-18T03:07:09;37.27;;;14.20;;
15693;SDS011;7947;48.834;9.132;2022-12-18T03:10:29;27.47;;;10.37;;
15693;SDS011;7947;48.834;9.132;2022-12-18T03:14:08;27.87;;;10.73;;
15693;SDS011;7947;48.834;9.132;2022-12-18T03:17:41;25.47;;;9.70;;
15693;SDS011;7947;48.834;9.132;2022-12-18T03:21:02;21.27;;;10.13;;
15693;SDS011;7947;48.834;9.132;2022-12-18T03:24:24;23.83;;;10.50;;
15693;SDS011;7947;48.834;9.132;2022-12-18T03:28:22;26.50;;;10.47;;
15693;SDS011;7947;48.834;9.132;2022-12-18T03:31:56;30.13;;;9.83;;
15693;SDS011;7947;48.834;9.132;2022-12-18T03:35:28;24.90;;;10.13;;
15693;SDS011;7947;48.834;9.132;2022-12-18T03:38:58;20.93;;;10.43;;
15693;SDS011;7947;48.834;9.132;2022-12-18T03:42:13;26.37;;;10.97;;
15693;SDS011;7947;48.834;9.132;2022-12-18T03:45:36;23.73;;;10.20;;
15693;SDS011;7947;48.834;9.132;2022-12-18T03:49:06;25.40;;;11.53;;
15693;SDS011;7947;48.834;9.132;2022-12-18T03:56:23;24.83;;;11.30;;
15693;SDS011;7947;48.834;9.132;2022-12-18T03:59:56;25.47;;;10.90;;
15693;SDS011;7947;48.834;9.132;2022-12-18T04:03:28;22.07;;;10.13;;
15693;SDS011;7947;48.834;9.132;2022-12-18T04:06:49;22.57;;;10.50;;
15693;SDS011;7947;48.834;9.132;2022-12-18T04:10:19;22.53;;;10.17;;
15693;SDS011;7947;48.834;9.132;2022-12-18T04:13:55;21.50;;;9.50;;
15693;SDS011;7947;48.834;9.132;2022-12-18T04:17:28;23.00;;;10.17;;
15693;SDS011;7947;48.834;9.132;2022-12-18T04:20:46;24.00;;;9.23;;
15693;SDS011;7947;48.834;9.132;2022-12-18T04:24:10;21.80;;;10.37;;
15693;SDS011;7947;48.834;9.132;2022-12-18T04:27:50;24.67;;;10.93;;
15693;SDS011;7947;48.834;9.132;2022-12-18T04:31:15;23.53;;;11.13;;
15693;SDS011;7947;48.834;9.132;2022-12-18T04:34:32;23.23;;;10.23;;
15693;SDS011;7947;48.834;9.132;2022-12-18T04:37:50;17.90;;;10.43;;
15693;SDS011;7947;48.834;9.132;2022-12-18T04:41:01;26.87;;;11.30;;
15693;SDS011;7947;48.834;9.132;2022-12-18T04:44:16;18.53;;;10.13;;
15693;SDS011;7947;48.834;9.132;2022-12-18T04:47:43;30.77;;;10.93;;
15693;SDS011;7947;48.834;9.132;2022-12-18T04:50:51;18.47;;;9.30;;
15693;SDS011;7947;48.834;9.132;2022-12-18T04:54:05;25.53;;;9.97;;
15693;SDS011;7947;48.834;9.132;2022-12-18T04:57:18;25.40;;;10.07;;
15693;SDS011;7947;48.834;9.132;2022-12-18T05:00:37;18.10;;;8.93;;
15693;SDS011;7947;48.834;9.132;2022-12-18T05:03:50;23.77;;;9.67;;
15693;SDS011;7947;48.834;9.132;2022-12-18T05:07:26;18.77;;;7.57;;
15693;SDS011;7947;48.834;9.132;2022-12-18T05:10:37;21.03;;;9.00;;
15693;SDS011;7947;48.834;9.132;2022-12-18T05:14:04;24.27;;;9.67;;
15693;SDS011;7947;48.834;9.132;2022-12-18T05:17:33;21.83;;;9.23;;
15693;SDS011;7947;48.834;9.132;2022-12-18T05:20:43;21.77;;;8.63;;
15693;SDS011;7947;48.834;9.132;2022-12-18T05:23:56;16.37;;;8.00;;
15693;SDS011;7947;48.834;9.132;2022-12-18T05:27:08;20.33;;;7.70;;
15693;SDS011;7947;48.834;9.132;2022-12-18T05:30:38;24.43;;;10.20;;
15693;SDS011;7947;48.834;9.132;2022-12-18T05:33:57;23.33;;;10.70;;
15693;SDS011;7947;48.834;9.132;2022-12-18T05:37:26;20.07;;;8.93;;
15693;SDS011;7947;48.834;9.132;2022-12-18T05:41:21;22.87;;;10.60;;
15693;SDS011;7947;48.834;9.132;2022-12-18T05:45:17;19.20;;;9.23;;
15693;SDS011;7947;48.834;9.132;2022-12-18T05:48:32;23.67;;;9.40;;
15693;SDS011;7947;48.834;9.132;2022-12-18T05:51:55;22.17;;;9.00;;
15693;SDS011;7947;48.834;9.132;2022-12-18T05:55:37;18.63;;;7.53;;
15693;SDS011;7947;48.834;9.132;2022-12-18T05:59:18;21.30;;;9.30;;
15693;SDS011;7947;48.834;9.132;2022-12-18T06:02:30;18.67;;;8.33;;
15693;SDS011;7947;48.834;9.132;2022-12-18T06:05:44;15.10;;;7.73;;
15693;SDS011;7947;48.834;9.132;2022-12-18T06:09:16;14.00;;;7.47;;
15693;SDS011;7947;48.834;9.132;2022-12-18T06:12:39;14.43;;;7.77;;
15693;SDS011;7947;48.834;9.132;2022-12-18T06:16:01;21.53;;;8.80;;
15693;SDS011;7947;48.834;9.132;2022-12-18T06:19:15;18.53;;;7.77;;
15693;SDS011;7947;48.834;9.132;2022-12-18T06:22:38;22.67;;;9.37;;
15693;SDS011;7947;48.834;9.132;2022-12-18T06:25:58;15.97;;;8.10;;
15693;SDS011;7947;48.834;9.132;2022-12-18T06:29:15;15.70;;;7.67;;
15693;SDS011;7947;48.834;9.132;2022-12-18T06:32:26;13.80;;;7.13;;
15693;SDS011;7947;48.834;9.132;2022-12-18T06:35:42;21.60;;;8.17;;
15693;SDS011;7947;48.834;9.132;2022-12-18T06:39:02;19.70;;;9.40;;
15693;SDS011;7947;48.834;9.132;2022-12-18T06:42:13;14.60;;;7.07;;
15693;SDS011;7947;48.834;9.132;2022-12-18T06:45:20;17.50;;;7.87;;
15693;SDS011;7947;48.834;9.132;2022-12-18T06:48:36;17.20;;;7.20;;
15693;SDS011;7947;48.834;9.132;2022-12-18T06:52:04;14.90;;;6.93;;
15693;SDS011;7947;48.834;9.132;2022-12-18T06:55:12;13.83;;;7.53;;
15693;SDS011;7947;48.834;9.132;2022-12-18T06:58:30;14.47;;;8.30;;
15693;SDS011;7947;48.834;9.132;2022-12-18T07:01:47;19.33;;;7.37;;
15693;SDS011;7947;48.834;9.132;2022-12-18T07:04:55;15.23;;;7.07;;
15693;SDS011;7947;48.834;9.132;2022-12-18T07:08:10;15.80;;;8.03;;
15693;SDS011;7947;48.834;9.132;2022-12-18T07:11:22;15.83;;;6.90;;
15693;SDS011;7947;48.834;9.132;2022-12-18T07:14:39;19.60;;;6.30;;
15693;SDS011;7947;48.834;9.132;2022-12-18T07:17:47;20.80;;;7.43;;
15693;SDS011;7947;48.834;9.132;2022-12-18T07:20:57;17.10;;;8.20;;
15693;SDS011;7947;48.834;9.132;2022-12-18T07:24:10;15.23;;;7.00;;
15693;SDS011;7947;48.834;9.132;2022-12-18T07:27:22;16.07;;;7.67;;
15693;SDS011;7947;48.834;9.132;2022-12-18T07:30:54;15.50;;;7.83;;
15693;SDS011;7947;48.834;9.132;2022-12-18T07:34:02;15.63;;;7.20;;
15693;SDS011;7947;48.834;9.132;2022-12-18T07:37:27;13.30;;;6.53;;
15693;SDS011;7947;48.834;9.132;2022-12-18T07:40:45;19.77;;;7.77;;
15693;SDS011;7947;48.834;9.132;2022-12-18T07:44:09;21.47;;;7.87;;
15693;SDS011;7947;48.834;9.132;2022-12-18T07:47:36;13.13;;;6.63;;
15693;SDS011;7947;48.834;9.132;2022-12-18T07:50:58;15.67;;;7.47;;
15693;SDS011;7947;48.834;9.132;2022-12-18T07:54:18;19.27;;;7.70;;
15693;SDS011;7947;48.834;9.132;2022-12-18T07:58:03;15.60;;;6.97;;
15693;SDS011;7947;48.834;9.132;2022-12-18T08:04:47;12.83;;;7.40;;
15693;SDS011;7947;48.834;9.132;2022-12-18T08:08:16;16.67;;;7.50;;
15693;SDS011;7947;48.834;9.132;2022-12-18T08:11:40;15.17;;;7.57;;
15693;SDS011;7947;48.834;9.132;2022-12-18T08:15:01;16.10;;;7.93;;
15693;SDS011;7947;48.834;9.132;2022-12-18T08:18:17;19.13;;;9.13;;
15693;SDS011;7947;48.834;9.132;2022-12-18T08:21:36;17.20;;;9.37;;
15693;SDS011;7947;48.834;9.132;2022-12-18T08:25:09;17.23;;;8.60;;
15693;SDS011;7947;48.834;9.132;2022-12-18T08:28:17;18.03;;;8.80;;
15693;SDS011;7947;48.834;9.132;2022-12-18T08:31:29;16.40;;;7.67;;
15693;SDS011;7947;48.834;9.132;2022-12-18T08:34:53;14.87;;;7.77;;
15693;SDS011;7947;48.834;9.132;2022-12-18T08:38:28;17.57;;;8.50;;
15693;SDS011;7947;48.834;9.132;2022-12-18T08:41:41;27.20;;;10.20;;
15693;SDS011;7947;48.834;9.132;2022-12-18T08:45:12;23.83;;;10.40;;
15693;SDS011;7947;48.834;9.132;2022-12-18T08:48:19;20.27;;;9.17;;
15693;SDS011;7947;48.834;9.132;2022-12-18T08:51:25;19.83;;;9.73;;
15693;SDS011;7947;48.834;9.132;2022-12-18T08:54:45;24.77;;;9.80;;
15693;SDS011;7947;48.834;9.132;2022-12-18T08:57:54;15.50;;;8.73;;
15693;SDS011;7947;48.834;9.132;2022-12-18T09:01:12;26.10;;;9.83;;
15693;SDS011;7947;48.834;9.132;2022-12-18T09:04:24;16.23;;;9.17;;
15693;SDS011;7947;48.834;9.132;2022-12-18T09:07:42;26.47;;;11.40;;
15693;SDS011;7947;48.834;9.132;2022-12-18T09:10:56;23.90;;;9.87;;
15693;SDS011;7947;48.834;9.132;2022-12-18T09:14:20;20.60;;;9.83;;
15693;SDS011;7947;48.834;9.132;2022-12-18T09:17:26;22.20;;;9.77;;
15693;SDS011;7947;48.834;9.132;2022-12-18T09:20:41;20.60;;;9.93;;
15693;SDS011;7947;48.834;9.132;2022-12-18T09:23:55;21.50;;;9.50;;
15693;SDS011;7947;48.834;9.132;2022-12-18T09:27:09;22.47;;;9.40;;
15693;SDS011;7947;48.834;9.132;2022-12-18T09:30:33;20.27;;;8.57;;
15693;SDS011;7947;48.834;9.132;2022-12-18T09:33:50;20.23;;;10.87;;
15693;SDS011;7947;48.834;9.132;2022-12-18T09:37:15;26.60;;;11.57;;
15693;SDS011;7947;48.834;9.132;2022-12-18T09:40:25;22.93;;;9.40;;
15693;SDS011;7947;48.834;9.132;2022-12-18T09:43:42;21.53;;;9.93;;
15693;SDS011;7947;48.834;9.132;2022-12-18T09:47:02;25.40;;;9.87;;
15693;SDS011;7947;48.834;9.132;2022-12-18T09:50:19;17.37;;;8.80;;
15693;SDS011;7947;48.834;9.132;2022-12-18T09:53:42;23.63;;;11.10;;
15693;SDS011;7947;48.834;9.132;2022-12-18T09:57:00;18.87;;;9.90;;
15693;SDS011;7947;48.834;9.132;2022-12-18T10:00:15;21.37;;;9.77;;
15693;SDS011;7947;48.834;9.132;2022-12-18T10:03:30;26.77;;;10.97;;
15693;SDS011;7947;48.834;9.132;2022-12-18T10:06:42;27.40;;;11.37;;
15693;SDS011;7947;48.834;9.132;2022-12-18T10:09:58;21.87;;;9.40;;
15693;SDS011;7947;48.834;9.132;2022-12-18T10:13:15;34.00;;;11.23;;
15693;SDS011;7947;48.834;9.132;2022-12-18T10:16:49;23.97;;;10.07;;
15693;SDS011;7947;48.834;9.132;2022-12-18T10:20:09;25.97;;;9.60;;
15693;SDS011;7947;48.834;9.132;2022-12-18T10:23:53;19.77;;;9.53;;
15693;SDS011;7947;48.834;9.132;2022-12-18T10:27:58;26.03;;;11.43;;
15693;SDS011;7947;48.834;9.132;2022-12-18T10:31:24;23.43;;;10.03;;
15693;SDS011;7947;48.834;9.132;2022-12-18T10:34:46;23.63;;;10.57;;
15693;SDS011;7947;48.834;9.132;2022-12-18T10:38:24;22.33;;;10.20;;
15693;SDS011;7947;48.834;9.132;2022-12-18T10:41:52;21.63;;;8.47;;
15693;SDS011;7947;48.834;9.132;2022-12-18T10:45:18;24.30;;;8.83;;
15693;SDS011;7947;48.834;9.132;2022-12-18T10:48:33;21.80;;;9.93;;
15693;SDS011;7947;48.834;9.132;2022-12-18T10:51:48;19.33;;;8.80;;
15693;SDS011;7947;48.834;9.132;2022-12-18T10:55:05;23.57;;;10.50;;
15693;SDS011;7947;48.834;9.132;2022-12-18T10:58:36;24.83;;;9.67;;
15693;SDS011;7947;48.834;9.132;2022-12-18T11:01:53;19.33;;;10.83;;
15693;SDS011;7947;48.834;9.132;2022-12-18T11:06:05;24.63;;;9.73;;
15693;SDS011;7947;48.834;9.132;2022-12-18T11:09:44;24.03;;;9.40;;
15693;SDS011;7947;48.834;9.132;2022-12-18T11:13:19;19.27;;;9.37;;
15693;SDS011;7947;48.834;9.132;2022-12-18T11:16:34;23.03;;;10.10;;
15693;SDS011;7947;48.834;9.132;2022-12-18T11:20:34;22.30;;;10.83;;
15693;SDS011;7947;48.834;9.132;2022-12-18T11:24:06;24.13;;;10.83;;
15693;SDS011;7947;48.834;9.132;2022-12-18T11:27:48;20.70;;;10.53;;
15693;SDS011;7947;48.834;9.132;2022-12-18T11:31:38;20.57;;;10.23;;
15693;SDS011;7947;48.834;9.132;2022-12-18T11:34:49;22.23;;;9.70;;
15693;SDS011;7947;48.834;9.132;2022-12-18T11:38:22;22.93;;;9.80;;
15693;SDS011;7947;48.834;9.132;2022-12-18T11:41:47;21.80;;;9.47;;
15693;SDS011;7947;48.834;9.132;2022-12-18T11:45:30;22.77;;;10.57;;
15693;SDS011;7947;48.834;9.132;2022-12-18T11:48:44;17.80;;;9.27;;
15693;SDS011;7947;48.834;9.132;2022-12-18T11:51:58;21.70;;;10.53;;
15693;SDS011;7947;48.834;9.132;2022-12-18T11:55:15;21.03;;;8.80;;
15693;SDS011;7947;48.834;9.132;2022-12-18T11:58:35;19.80;;;9.70;;
15693;SDS011;7947;48.834;9.132;2022-12-18T12:02:10;17.93;;;8.97;;
15693;SDS011;7947;48.834;9.132;2022-12-18T12:05:38;21.07;;;9.40;;
15693;SDS011;7947;48.834;9.132;2022-12-18T12:09:01;19.27;;;9.53;;
15693;SDS011;7947;48.834;9.132;2022-12-18T12:12:24;20.50;;;9.73;;
15693;SDS011;7947;48.834;9.132;2022-12-18T12:16:03;17.83;;;8.17;;
15693;SDS011;7947;48.834;9.132;2022-12-18T12:19:35;16.90;;;8.37;;
15693;SDS011;7947;48.834;9.132;2022-12-18T12:23:05;21.40;;;10.30;;
15693;SDS011;7947;48.834;9.132;2022-12-18T12:26:35;22.83;;;10.20;;
15693;SDS011;7947;48.834;9.132;2022-12-18T12:30:06;20.33;;;10.40;;
15693;SDS011;7947;48.834;9.132;2022-12-18T12:33:33;22.97;;;9.73;;
15693;SDS011;7947;48.834;9.132;2022-12-18T12:40:56;20.23;;;10.17;;
15693;SDS011;7947;48.834;9.132;2022-12-18T12:44:50;20.27;;;9.80;;
15693;SDS011;7947;48.834;9.132;2022-12-18T12:48:28;21.40;;;9.53;;
15693;SDS011;7947;48.834;9.132;2022-12-18T12:52:23;23.30;;;9.33;;
15693;SDS011;7947;48.834;9.132;2022-12-18T12:55:52;24.07;;;9.70;;
15693;SDS011;7947;48.834;9.132;2022-12-18T12:59:29;21.50;;;9.10;;
15693;SDS011;7947;48.834;9.132;2022-12-18T13:03:03;21.33;;;9.80;;
15693;SDS011;7947;48.834;9.132;2022-12-18T13:06:35;23.63;;;10.03;;
15693;SDS011;7947;48.834;9.132;2022-12-18T13:14:12;21.20;;;10.00;;
15693;SDS011;7947;48.834;9.132;2022-12-18T13:17:35;19.00;;;9.97;;
15693;SDS011;7947;48.834;9.132;2022-12-18T13:21:28;21.53;;;10.00;;
15693;SDS011;7947;48.834;9.132;2022-12-18T13:29:41;21.20;;;10.07;;
15693;SDS011;7947;48.834;9.132;2022-12-18T13:33:39;21.07;;;10.63;;
15693;SDS011;7947;48.834;9.132;2022-12-18T13:41:46;19.47;;;10.50;;
15693;SDS011;7947;48.834;9.132;2022-12-18T13:49:23;19.87;;;10.53;;
15693;SDS011;7947;48.834;9.132;2022-12-18T13:52:36;23.13;;;10.80;;
15693;SDS011;7947;48.834;9.132;2022-12-18T13:55:53;19.43;;;9.60;;
15693;SDS011;7947;48.834;9.132;2022-12-18T13:59:12;26.13;;;10.83;;
15693;SDS011;7947;48.834;9.132;2022-12-18T14:02:30;20.33;;;10.43;;
15693;SDS011;7947;48.834;9.132;2022-12-18T14:05:56;17.27;;;9.20;;
15693;SDS011;7947;48.834;9.132;2022-12-18T14:09:14;20.03;;;9.93;;
15693;SDS011;7947;48.834;9.132;2022-12-18T14:12:45;24.57;;;10.53;;
15693;SDS011;7947;48.834;9.132;2022-12-18T14:16:06;26.33;;;10.47;;
15693;SDS011;7947;48.834;9.132;2022-12-18T14:19:20;21.63;;;9.37;;
15693;SDS011;7947;48.834;9.132;2022-12-18T14:22:35;24.63;;;9.90;;
15693;SDS011;7947;48.834;9.132;2022-12-18T14:25:45;29.73;;;11.73;;
15693;SDS011;7947;48.834;9.132;2022-12-18T14:28:55;24.77;;;10.57;;
15693;SDS011;7947;48.834;9.132;2022-12-18T14:32:16;27.00;;;11.70;;
15693;SDS011;7947;48.834;9.132;2022-12-18T14:35:39;21.83;;;10.00;;
15693;SDS011;7947;48.834;9.132;2022-12-18T14:39:13;24.63;;;10.83;;
15693;SDS011;7947;48.834;9.132;2022-12-18T14:42:31;28.07;;;12.03;;
15693;SDS011;7947;48.834;9.132;2022-12-18T14:45:39;23.73;;;10.47;;
15693;SDS011;7947;48.834;9.132;2022-12-18T14:48:52;21.17;;;9.80;;
15693;SDS011;7947;48.834;9.132;2022-12-18T14:52:27;22.70;;;10.03;;
15693;SDS011;7947;48.834;9.132;2022-12-18T14:56:10;27.23;;;11.37;;
15693;SDS011;7947;48.834;9.132;2022-12-18T14:59:39;22.30;;;10.53;;
15693;SDS011;7947;48.834;9.132;2022-12-18T15:03:23;28.13;;;11.20;;
15693;SDS011;7947;48.834;9.132;2022-12-18T15:07:04;22.27;;;11.50;;
15693;SDS011;7947;48.834;9.132;2022-12-18T15:10:30;26.30;;;10.67;;
15693;SDS011;7947;48.834;9.132;2022-12-18T15:14:43;23.33;;;11.97;;
15693;SDS011;7947;48.834;9.132;2022-12-18T15:18:27;23.60;;;9.80;;
15693;SDS011;7947;48.834;9.132;2022-12-18T15:21:49;27.40;;;10.93;;
15693;SDS011;7947;48.834;9.132;2022-12-18T15:25:34;23.60;;;11.27;;
15693;SDS011;7947;48.834;9.132;2022-12-18T15:28:51;24.10;;;10.63;;
15693;SDS011;7947;48.834;9.132;2022-12-18T15:36:01;26.43;;;10.57;;
15693;SDS011;7947;48.834;9.132;2022-12-18T15:39:33;20.33;;;12.00;;
15693;SDS011;7947;48.834;9.132;2022-12-18T15:42:45;23.63;;;10.77;;
15693;SDS011;7947;48.834;9.132;2022-12-18T15:46:21;25.50;;;12.27;;
15693;SDS011;7947;48.834;9.132;2022-12-18T15:49:42;30.93;;;12.37;;
15693;SDS011;7947;48.834;9.132;2022-12-18T15:52:48;26.83;;;10.93;;
15693;SDS011;7947;48.834;9.132;2022-12-18T15:56:07;28.23;;;11.77;;
15693;SDS011;7947;48.834;9.132;2022-12-18T15:59:38;23.70;;;10.87;;
15693;SDS011;7947;48.834;9.132;2022-12-18T16:03:14;27.87;;;11.30;;
15693;SDS011;7947;48.834;9.132;2022-12-18T16:06:51;25.33;;;11.40;;
15693;SDS011;7947;48.834;9.132;2022-12-18T16:10:16;29.70;;;11.93;;
15693;SDS011;7947;48.834;9.132;2022-12-18T16:14:08;24.53;;;11.37;;
15693;SDS011;7947;48.834;9.132;2022-12-18T16:17:43;26.00;;;10.47;;
15693;SDS011;7947;48.834;9.132;2022-12-18T16:21:13;26.03;;;10.00;;
15693;SDS011;7947;48.834;9.132;2022-12-18T16:24:21;24.47;;;10.50;;
15693;SDS011;7947;48.834;9.132;2022-12-18T16:27:51;27.27;;;11.07;;
15693;SDS011;7947;48.834;9.132;2022-12-18T16:31:09;25.27;;;10.00;;
15693;SDS011;7947;48.834;9.132;2022-12-18T16:34:38;26.73;;;10.50;;
15693;SDS011;7947;48.834;9.132;2022-12-18T16:37:52;22.43;;;10.53;;
15693;SDS011;7947;48.834;9.132;2022-12-18T16:41:20;25.87;;;11.23;;
15693;SDS011;7947;48.834;9.132;2022-12-18T16:44:37;22.37;;;10.00;;
15693;SDS011;7947;48.834;9.132;2022-12-18T16:47:44;29.80;;;12.03;;
15693;SDS011;7947;48.834;9.132;2022-12-18T16:50:56;22.33;;;10.97;;
15693;SDS011;7947;48.834;9.132;2022-12-18T16:54:18;24.83;;;11.03;;
15693;SDS011;7947;48.834;9.132;2022-12-18T16:57:37;23.60;;;10.97;;
15693;SDS011;7947;48.834;9.132;2022-12-18T17:00:56;26.00;;;11.53;;
15693;SDS011;7947;48.834;9.132;2022-12-18T17:04:44;30.70;;;11.23;;
15693;SDS011;7947;48.834;9.132;2022-12-18T17:08:17;24.13;;;11.13;;
15693;SDS011;7947;48.834;9.132;2022-12-18T17:11:34;29.17;;;10.93;;
15693;SDS011;7947;48.834;9.132;2022-12-18T17:15:03;25.87;;;12.23;;
15693;SDS011;7947;48.834;9.132;2022-12-18T17:18:12;28.40;;;11.53;;
15693;SDS011;7947;48.834;9.132;2022-12-18T17:21:19;27.60;;;12.20;;
15693;SDS011;7947;48.834;9.132;2022-12-18T17:24:29;24.83;;;10.83;;
15693;SDS011;7947;48.834;9.132;2022-12-18T17:27:44;30.07;;;11.87;;
15693;SDS011;7947;48.834;9.132;2022-12-18T17:30:55;27.13;;;11.93;;
15693;SDS011;7947;48.834;9.132;2022-12-18T17:33:58;27.33;;;11.80;;
15693;SDS011;7947;48.834;9.132;2022-12-18T17:37:03;24.93;;;11.30;;
15693;SDS011;7947;48.834;9.132;2022-12-18T17:40:09;23.30;;;11.67;;
15693;SDS011;7947;48.834;9.132;2022-12-18T17:43:12;20.00;;;10.17;;
15693;SDS011;7947;48.834;9.132;2022-12-18T17:46:16;34.10;;;11.50;;
15693;SDS011;7947;48.834;9.132;2022-12-18T17:49:19;23.90;;;11.57;;
15693;SDS011;7947;48.834;9.132;2022-12-18T17:52:22;25.47;;;11.20;;
15693;SDS011;7947;48.834;9.132;2022-12-18T17:55:25;25.60;;;11.30;;
15693;SDS011;7947;48.834;9.132;2022-12-18T17:58:29;24.03;;;11.73;;
15693;SDS011;7947;48.834;9.132;2022-12-18T18:01:33;27.13;;;11.03;;
15693;SDS011;7947;48.834;9.132;2022-12-18T18:04:44;22.97;;;9.90;;
15693;SDS011;7947;48.834;9.132;2022-12-18T18:07:48;27.40;;;11.33;;
15693;SDS011;7947;48.834;9.132;2022-12-18T18:10:52;26.03;;;11.13;;
15693;SDS011;7947;48.834;9.132;2022-12-18T18:13:55;25.40;;;10.90;;
15693;SDS011;7947;48.834;9.132;2022-12-18T18:17:06;26.13;;;10.80;;
15693;SDS011;7947;48.834;9.132;2022-12-18T18:20:09;24.07;;;10.20;;
15693;SDS011;7947;48.834;9.132;2022-12-18T18:23:12;27.73;;;11.80;;
15693;SDS011;7947;48.834;9.132;2022-12-18T18:26:19;26.30;;;10.60;;
15693;SDS011;7947;48.834;9.132;2022-12-18T18:29:45;26.23;;;10.20;;
15693;SDS011;7947;48.834;9.132;2022-12-18T18:32:57;26.83;;;12.07;;
15693;SDS011;7947;48.834;9.132;2022-12-18T18:36:12;26.73;;;10.13;;
15693;SDS011;7947;48.834;9.132;2022-12-18T18:39:45;23.03;;;9.87;;
15693;SDS011;7947;48.834;9.132;2022-12-18T18:42:52;24.43;;;11.00;;
15693;SDS011;7947;48.834;9.132;2022-12-18T18:46:31;24.80;;;10.63;;
15693;SDS011;7947;48.834;9.132;2022-12-18T18:49:36;24.23;;;11.13;;
15693;SDS011;7947;48.834;9.132;2022-12-18T18:52:38;28.07;;;11.07;;
15693;SDS011;7947;48.834;9.132;2022-12-18T18:56:14;25.13;;;12.23;;
15693;SDS011;7947;48.834;9.132;2022-12-18T19:00:09;18.47;;;8.83;;
15693;SDS011;7947;48.834;9.132;2022-12-18T19:03:25;26.93;;;10.97;;
15693;SDS011;7947;48.834;9.132;2022-12-18T19:06:39;27.50;;;11.30;;
15693;SDS011;7947;48.834;9.132;2022-12-18T19:10:01;22.30;;;9.93;;
15693;SDS011;7947;48.834;9.132;2022-12-18T19:13:22;25.90;;;11.30;;
15693;SDS011;7947;48.834;9.132;2022-12-18T19:16:38;24.43;;;10.10;;
15693;SDS011;7947;48.834;9.132;2022-12-18T19:19:46;22.33;;;9.97;;
15693;SDS011;7947;48.834;9.132;2022-12-18T19:22:51;22.63;;;10.30;;
15693;SDS011;7947;48.834;9.132;2022-12-18T19:26:08;30.50;;;11.17;;
15693;SDS011;7947;48.834;9.132;2022-12-18T19:29:28;23.97;;;10.63;;
15693;SDS011;7947;48.834;9.132;2022-12-18T19:32:37;27.73;;;11.83;;
15693;SDS011;7947;48.834;9.132;2022-12-18T19:35:52;20.40;;;9.97;;
15693;SDS011;7947;48.834;9.132;2022-12-18T19:39:06;26.47;;;12.10;;
15693;SDS011;7947;48.834;9.132;2022-12-18T19:42:11;25.47;;;11.50;;
15693;SDS011;7947;48.834;9.132;2022-12-18T19:45:22;26.07;;;10.47;;
15693;SDS011;7947;48.834;9.132;2022-12-18T19:48:45;28.63;;;12.13;;
15693;SDS011;7947;48.834;9.132;2022-12-18T19:52:05;25.67;;;10.73;;
15693;SDS011;7947;48.834;9.132;2022-12-18T19:55:21;29.13;;;10.60;;
15693;SDS011;7947;48.834;9.132;2022-12-18T19:58:27;22.10;;;11.20;;
15693;SDS011;7947;48.834;9.132;2022-12-18T20:01:37;25.93;;;12.07;;
15693;SDS011;7947;48.834;9.132;2022-12-18T20:05:10;21.87;;;10.03;;
15693;SDS011;7947;48.834;9.132;2022-12-18T20:08:19;24.40;;;10.73;;
15693;SDS011;7947;48.834;9.132;2022-12-18T20:11:34;25.87;;;11.10;;
15693;SDS011;7947;48.834;9.132;2022-12-18T20:14:49;31.53;;;11.43;;
15693;SDS011;7947;48.834;9.132;2022-12-18T20:18:16;25.43;;;10.90;;
15693;SDS011;7947;48.834;9.132;2022-12-18T20:21:40;24.73;;;10.60;;
15693;SDS011;7947;48.834;9.132;2022-12-18T20:25:05;28.77;;;10.63;;
15693;SDS011;7947;48.834;9.132;2022-12-18T20:28:17;24.13;;;10.50;;
15693;SDS011;7947;48.834;9.132;2022-12-18T20:32:03;25.20;;;11.03;;
15693;SDS011;7947;48.834;9.132;2022-12-18T20:35:17;25.67;;;9.73;;
15693;SDS011;7947;48.834;9.132;2022-12-18T20:38:28;25.43;;;11.87;;
15693;SDS011;7947;48.834;9.132;2022-12-18T20:41:37;24.87;;;11.33;;
15693;SDS011;7947;48.834;9.132;2022-12-18T20:44:45;22.30;;;10.33;;
15693;SDS011;7947;48.834;9.132;2022-12-18T20:48:24;25.17;;;10.53;;